createdAt,value
2023-03-06T00:04:24.346Z,11.80
2023-03-06T00:09:28.971Z,10.90
2023-03-06T00:14:32.390Z,11.55
2023-03-06T00:19:35.789Z,12.23
2023-03-06T00:24:40.401Z,9.80
2023-03-06T00:29:43.556Z,9.68
2023-03-06T00:34:50.089Z,12.07
2023-03-06T00:39:55.087Z,10.93
2023-03-06T00:44:58.471Z,9.65
2023-03-06T00:50:01.867Z,11.63
2023-03-06T00:55:09.809Z,11.18
2023-03-06T01:00:14.731Z,11.95
2023-03-06T01:05:18.441Z,8.95
2023-03-06T01:10:23.417Z,9.05
2023-03-06T01:15:26.982Z,7.32
2023-03-06T01:20:30.995Z,8.93
2023-03-06T01:25:35.580Z,7.95
2023-03-06T01:30:38.774Z,8.70
2023-03-06T01:35:42.172Z,8.20
2023-03-06T01:40:47.258Z,10.85
2023-03-06T01:46:23.941Z,9.40
2023-03-06T01:51:31.719Z,10.18
2023-03-06T01:56:37.026Z,6.47
2023-03-06T02:01:41.862Z,8.80
2023-03-06T02:06:45.693Z,6.55
2023-03-06T02:11:50.540Z,9.90
2023-03-06T02:16:54.114Z,11.00
2023-03-06T02:21:57.710Z,8.02
2023-03-06T02:27:05.402Z,9.25
2023-03-06T02:32:08.899Z,7.80
2023-03-06T02:37:12.987Z,7.60
2023-03-06T02:42:21.081Z,11.25
2023-03-06T02:47:24.700Z,8.95
2023-03-06T02:52:27.985Z,9.32
2023-03-06T02:57:32.657Z,11.13
2023-03-06T03:02:36.011Z,9.68
2023-03-06T03:07:39.522Z,11.27
2023-03-06T03:12:44.603Z,11.10
2023-03-06T03:17:47.867Z,11.25
2023-03-06T03:22:53.319Z,9.68
2023-03-06T03:27:57.996Z,12.68
2023-03-06T03:33:01.274Z,12.45
2023-03-06T03:38:04.889Z,13.05
2023-03-06T03:43:09.693Z,11.80
2023-03-06T03:48:13.148Z,9.25
2023-03-06T03:53:16.492Z,6.80
2023-03-06T03:58:21.148Z,6.78
2023-03-06T04:03:24.514Z,7.07
2023-03-06T04:08:28.590Z,6.95
2023-03-06T04:13:33.297Z,7.47
2023-03-06T04:18:36.719Z,6.18
2023-03-06T04:23:40.069Z,6.05
2023-03-06T04:28:44.619Z,4.80
2023-03-06T04:33:47.828Z,4.68
2023-03-06T04:38:51.081Z,3.28
2023-03-06T04:43:56.170Z,2.85
2023-03-06T04:48:59.518Z,7.60
2023-03-06T04:54:02.787Z,4.15
2023-03-06T04:59:07.622Z,4.90
2023-03-06T05:04:10.864Z,4.72
2023-03-06T05:09:14.366Z,3.10
2023-03-06T05:14:19.002Z,5.75
2023-03-06T05:19:22.311Z,4.80
2023-03-06T05:24:25.720Z,5.15
2023-03-06T05:29:30.336Z,4.47
2023-03-06T05:34:33.627Z,8.30
2023-03-06T05:39:37.007Z,4.93
2023-03-06T05:44:42.279Z,4.15
2023-03-06T05:49:45.601Z,6.70
2023-03-06T05:54:51.908Z,8.20
2023-03-06T05:59:56.544Z,8.30
2023-03-06T06:04:59.912Z,4.45
2023-03-06T06:10:03.987Z,4.95
2023-03-06T06:15:10.053Z,3.55
2023-03-06T06:20:14.395Z,3.85
2023-03-06T06:25:18.197Z,4.18
2023-03-06T06:30:23.548Z,5.63
2023-03-06T06:35:26.828Z,4.57
2023-03-06T06:40:30.573Z,6.38
2023-03-06T06:45:35.486Z,1.77
2023-03-06T06:50:40.107Z,4.40
2023-03-06T06:55:43.447Z,5.50
2023-03-06T07:00:48.266Z,5.53
2023-03-06T07:05:57.760Z,10.18
2023-03-06T07:11:05.768Z,3.42
2023-03-06T07:16:11.057Z,4.25
2023-03-06T07:21:14.414Z,5.72
2023-03-06T07:26:17.668Z,3.88
2023-03-06T07:31:24.738Z,4.07
2023-03-06T07:36:28.162Z,5.28
2023-03-06T07:41:31.439Z,2.42
2023-03-06T07:46:36.059Z,4.35
2023-03-06T07:51:39.394Z,3.78
2023-03-06T07:56:42.658Z,3.72
2023-03-06T08:01:47.302Z,2.17
2023-03-06T08:06:50.809Z,3.10
2023-03-06T08:11:54.111Z,2.92
2023-03-06T08:16:59.038Z,1.48
2023-03-06T08:22:02.193Z,1.67
2023-03-06T08:27:05.481Z,2.50
2023-03-06T08:32:13.203Z,3.15
2023-03-06T08:37:16.463Z,2.28
2023-03-06T08:42:20.215Z,3.25
2023-03-06T08:47:24.966Z,2.80
2023-03-06T08:52:28.498Z,3.22
2023-03-06T08:57:32.023Z,2.00
2023-03-06T09:02:36.922Z,2.78
2023-03-06T09:07:40.213Z,2.97
2023-03-06T09:12:50.593Z,4.60
2023-03-06T09:17:56.973Z,1.70
2023-03-06T09:23:00.616Z,3.58
2023-03-06T09:28:11.322Z,5.60
2023-03-06T09:33:16.789Z,3.05
2023-03-06T09:38:20.778Z,3.63
2023-03-06T09:43:35.494Z,1.85
2023-03-06T09:48:50.464Z,1.35
2023-03-06T09:54:06.920Z,5.10
2023-03-06T09:59:17.579Z,6.03
2023-03-06T10:04:33.914Z,1.30
2023-03-06T10:09:43.504Z,2.03
2023-03-06T10:14:51.555Z,2.95
2023-03-06T10:19:56.621Z,4.60
2023-03-06T10:25:06.157Z,5.30
2023-03-06T10:30:33.840Z,3.38
2023-03-06T10:35:48.515Z,3.25
2023-03-06T10:41:08.177Z,1.88
2023-03-06T10:46:13.458Z,2.55
2023-03-06T10:51:21.221Z,1.63
2023-03-06T10:56:32.462Z,2.30
2023-03-06T11:01:36.202Z,1.67
2023-03-06T11:06:41.029Z,3.72
2023-03-06T11:11:44.553Z,4.15
2023-03-06T11:16:53.285Z,2.83
2023-03-06T11:22:03.868Z,1.98
2023-03-06T11:27:22.336Z,2.25
2023-03-06T11:32:28.979Z,3.20
2023-03-06T11:37:46.402Z,3.67
2023-03-06T11:42:54.448Z,3.28
2023-03-06T11:48:05.121Z,2.38
2023-03-06T11:53:13.927Z,4.13
2023-03-06T11:58:51.624Z,4.03
2023-03-06T12:04:27.250Z,4.90
2023-03-06T12:09:45.317Z,3.58
2023-03-06T12:15:17.822Z,3.05
2023-03-06T12:20:41.369Z,3.78
2023-03-06T12:25:51.845Z,3.55
2023-03-06T12:31:18.921Z,3.50
2023-03-06T12:36:40.004Z,3.88
2023-03-06T12:42:22.692Z,5.50
2023-03-06T12:47:29.305Z,4.77
2023-03-06T12:52:35.076Z,3.42
2023-03-06T12:57:39.649Z,3.92
2023-03-06T13:02:56.162Z,3.88
2023-03-06T13:08:25.386Z,3.97
2023-03-06T13:13:42.719Z,4.35
2023-03-06T13:18:53.264Z,4.22
2023-03-06T13:24:05.850Z,2.35
2023-03-06T13:29:41.878Z,6.03
2023-03-06T13:34:48.679Z,2.75
2023-03-06T13:40:26.935Z,2.72
2023-03-06T13:45:35.450Z,4.60
2023-03-06T13:50:42.865Z,5.15
2023-03-06T13:55:59.892Z,4.40
2023-03-06T14:01:20.326Z,6.80
2023-03-06T14:06:51.500Z,3.15
2023-03-06T14:11:59.334Z,6.90
2023-03-06T14:17:05.368Z,4.50
2023-03-06T14:22:18.386Z,2.45
2023-03-06T14:27:22.461Z,3.17
2023-03-06T14:32:25.978Z,2.50
2023-03-06T14:37:32.230Z,3.42
2023-03-06T14:42:35.530Z,5.70
2023-03-06T14:47:39.272Z,2.50
2023-03-06T14:52:44.534Z,2.55
2023-03-06T14:57:50.262Z,3.75
2023-03-06T15:02:56.419Z,5.25
2023-03-06T15:08:04.672Z,4.15
2023-03-06T15:13:12.625Z,6.40
2023-03-06T15:18:34.035Z,3.25
2023-03-06T15:23:40.580Z,3.15
2023-03-06T15:28:44.069Z,3.28
2023-03-06T15:34:09.300Z,3.05
2023-03-06T15:39:32.046Z,6.15
2023-03-06T15:44:35.838Z,4.75
2023-03-06T15:49:39.340Z,4.43
2023-03-06T15:54:44.346Z,6.90
2023-03-06T15:59:48.157Z,3.03
2023-03-06T16:04:52.273Z,6.80
2023-03-06T16:09:57.267Z,6.45
2023-03-06T16:15:03.004Z,8.70
2023-03-06T16:20:09.166Z,7.80
2023-03-06T16:25:15.267Z,13.25
2023-03-06T16:30:21.497Z,13.20
2023-03-06T16:35:25.859Z,10.48
2023-03-06T16:40:37.634Z,7.63
2023-03-06T16:45:42.757Z,7.40
2023-03-06T16:50:46.325Z,6.45
2023-03-06T16:55:51.113Z,7.28
2023-03-06T17:00:54.700Z,8.35
2023-03-06T17:05:58.015Z,8.90
2023-03-06T17:11:06.410Z,7.80
2023-03-06T17:16:12.775Z,7.43
2023-03-06T17:21:16.711Z,9.43
2023-03-06T17:26:21.554Z,8.02
2023-03-06T17:31:27.153Z,11.20
2023-03-06T17:36:31.251Z,19.77
2023-03-06T17:41:35.985Z,15.10
2023-03-06T17:46:39.499Z,9.73
2023-03-06T17:51:42.697Z,11.13
2023-03-06T17:56:47.620Z,7.35
2023-03-06T18:01:51.050Z,10.98
2023-03-06T18:06:54.517Z,8.68
2023-03-06T18:11:59.156Z,9.85
2023-03-06T18:17:02.465Z,7.57
2023-03-06T18:22:05.651Z,13.05
2023-03-06T18:27:10.516Z,9.35
2023-03-06T18:32:13.746Z,10.05
2023-03-06T18:37:17.282Z,8.48
2023-03-06T18:42:22.066Z,11.30
2023-03-06T18:47:25.388Z,7.25
2023-03-06T18:52:28.577Z,11.52
2023-03-06T18:57:33.638Z,9.38
2023-03-06T19:02:36.961Z,10.63
2023-03-06T19:07:40.830Z,12.60
2023-03-06T19:12:45.622Z,10.45
2023-03-06T19:17:51.516Z,10.20
2023-03-06T19:22:55.242Z,8.73
2023-03-06T19:27:59.938Z,9.75
2023-03-06T19:33:03.287Z,10.13
2023-03-06T19:38:06.465Z,5.90
2023-03-06T19:43:11.170Z,11.00
2023-03-06T19:48:14.860Z,6.93
2023-03-06T19:53:18.096Z,5.88
2023-03-06T19:58:22.754Z,8.23
2023-03-06T20:03:25.995Z,8.13
2023-03-06T20:08:29.283Z,5.35
2023-03-06T20:13:34.114Z,7.47
2023-03-06T20:18:37.523Z,6.32
2023-03-06T20:23:40.997Z,8.27
2023-03-06T20:28:45.653Z,8.18
2023-03-06T20:33:51.240Z,8.77
2023-03-06T20:38:54.597Z,8.25
2023-03-06T20:44:01.187Z,6.68
2023-03-06T20:49:05.448Z,8.77
2023-03-06T20:54:11.172Z,8.80
2023-03-06T20:59:16.353Z,6.75
2023-03-06T21:04:19.486Z,8.35
2023-03-06T21:09:22.936Z,7.97
2023-03-06T21:14:27.885Z,7.35
2023-03-06T21:19:31.265Z,6.72
2023-03-06T21:24:34.530Z,9.15
2023-03-06T21:29:39.213Z,7.63
2023-03-06T21:34:42.600Z,8.05
2023-03-06T21:39:45.902Z,8.68
2023-03-06T21:44:50.889Z,7.30
2023-03-06T21:49:54.186Z,5.55
2023-03-06T21:54:57.503Z,7.03
2023-03-06T22:00:02.365Z,6.55
2023-03-06T22:05:07.194Z,6.20
2023-03-06T22:10:14.391Z,4.97
2023-03-06T22:15:21.914Z,6.13
2023-03-06T22:20:25.256Z,4.35
2023-03-06T22:25:28.405Z,6.15
2023-03-06T22:30:33.100Z,5.18
2023-03-06T22:35:36.401Z,4.00
2023-03-06T22:40:39.803Z,4.07
2023-03-06T22:45:44.726Z,5.18
2023-03-06T22:50:48.464Z,5.57
2023-03-06T22:55:51.941Z,4.43
2023-03-06T23:00:57.901Z,2.80
2023-03-06T23:06:01.199Z,5.93
2023-03-06T23:11:08.230Z,4.78
2023-03-06T23:16:13.326Z,5.03
2023-03-06T23:21:18.426Z,5.97
2023-03-06T23:26:23.925Z,3.67
2023-03-06T23:31:30.244Z,2.38
2023-03-06T23:36:33.577Z,5.90
2023-03-06T23:41:36.872Z,4.93
2023-03-06T23:46:41.588Z,3.97
2023-03-06T23:51:45.063Z,2.30
2023-03-06T23:56:48.660Z,4.82
